sensor_id;sensor_type;location;lat;lon;timestamp;pressure;altitude;pressure_sealevel;temperature;humidity
67545;BME280;54380;47.770;11.150;2023-07-31T00:01:15;95026.75;;;19.23;55.06
67545;BME280;54380;47.770;11.150;2023-07-31T00:03:42;95027.38;;;19.20;55.25
67545;BME280;54380;47.770;11.150;2023-07-31T00:06:08;95027.66;;;19.19;55.29
67545;BME280;54380;47.770;11.150;2023-07-31T00:08:36;95019.34;;;19.20;55.26
67545;BME280;54380;47.770;11.150;2023-07-31T00:11:03;95029.72;;;19.22;55.54
67545;BME280;54380;47.770;11.150;2023-07-31T00:13:29;95019.22;;;19.25;55.42
67545;BME280;54380;47.770;11.150;2023-07-31T00:15:56;95018.13;;;19.26;55.39
67545;BME280;54380;47.770;11.150;2023-07-31T00:18:23;95009.31;;;19.26;55.55
67545;BME280;54380;47.770;11.150;2023-07-31T00:20:49;94998.63;;;19.26;55.61
67545;BME280;54380;47.770;11.150;2023-07-31T00:23:16;95005.53;;;19.27;55.49
67545;BME280;54380;47.770;11.150;2023-07-31T00:25:44;95006.34;;;19.27;55.82
67545;BME280;54380;47.770;11.150;2023-07-31T00:28:10;95002.28;;;19.30;55.98
67545;BME280;54380;47.770;11.150;2023-07-31T00:30:37;95001.34;;;19.35;55.86
67545;BME280;54380;47.770;11.150;2023-07-31T00:33:04;94996.31;;;19.33;55.76
67545;BME280;54380;47.770;11.150;2023-07-31T00:35:31;94993.66;;;19.33;55.75
67545;BME280;54380;47.770;11.150;2023-07-31T00:37:58;94989.69;;;19.30;55.93
67545;BME280;54380;47.770;11.150;2023-07-31T00:40:25;94993.44;;;19.29;56.22
67545;BME280;54380;47.770;11.150;2023-07-31T00:42:52;94990.47;;;19.31;56.34
67545;BME280;54380;47.770;11.150;2023-07-31T00:45:19;94992.84;;;19.33;56.24
67545;BME280;54380;47.770;11.150;2023-07-31T00:47:47;94994.59;;;19.37;56.06
67545;BME280;54380;47.770;11.150;2023-07-31T00:50:13;94987.84;;;19.40;55.96
67545;BME280;54380;47.770;11.150;2023-07-31T00:52:40;94985.66;;;19.42;55.85
67545;BME280;54380;47.770;11.150;2023-07-31T00:55:07;94975.09;;;19.37;55.88
67545;BME280;54380;47.770;11.150;2023-07-31T00:57:34;94974.91;;;19.33;56.01
67545;BME280;54380;47.770;11.150;2023-07-31T01:00:04;94976.78;;;19.33;56.04
67545;BME280;54380;47.770;11.150;2023-07-31T01:02:31;94970.63;;;19.32;56.11
67545;BME280;54380;47.770;11.150;2023-07-31T01:04:58;94966.56;;;19.35;56.01
67545;BME280;54380;47.770;11.150;2023-07-31T01:07:26;94967.66;;;19.34;55.83
67545;BME280;54380;47.770;11.150;2023-07-31T01:09:57;94967.16;;;19.32;56.09
67545;BME280;54380;47.770;11.150;2023-07-31T01:12:26;94968.56;;;19.29;56.03
67545;BME280;54380;47.770;11.150;2023-07-31T01:15:01;94966.78;;;19.24;55.91
67545;BME280;54380;47.770;11.150;2023-07-31T01:17:30;94963.66;;;19.22;55.89
67545;BME280;54380;47.770;11.150;2023-07-31T01:19:59;94965.16;;;19.15;55.64
67545;BME280;54380;47.770;11.150;2023-07-31T01:22:30;94967.28;;;19.04;56.07
67545;BME280;54380;47.770;11.150;2023-07-31T01:25:05;94958.53;;;18.98;56.60
67545;BME280;54380;47.770;11.150;2023-07-31T01:27:39;94962.63;;;18.96;56.51
67545;BME280;54380;47.770;11.150;2023-07-31T01:30:11;94950.16;;;18.91;56.69
67545;BME280;54380;47.770;11.150;2023-07-31T01:32:42;94951.56;;;18.89;56.65
67545;BME280;54380;47.770;11.150;2023-07-31T01:35:09;94955.63;;;18.86;56.39
67545;BME280;54380;47.770;11.150;2023-07-31T01:37:36;94952.88;;;18.77;56.42
67545;BME280;54380;47.770;11.150;2023-07-31T01:40:04;94948.66;;;18.71;56.57
67545;BME280;54380;47.770;11.150;2023-07-31T01:42:31;94954.13;;;18.66;56.84
67545;BME280;54380;47.770;11.150;2023-07-31T01:44:59;94944.31;;;18.61;57.18
67545;BME280;54380;47.770;11.150;2023-07-31T01:47:26;94943.06;;;18.59;56.94
67545;BME280;54380;47.770;11.150;2023-07-31T01:49:53;94948.19;;;18.55;56.19
67545;BME280;54380;47.770;11.150;2023-07-31T01:52:20;94948.50;;;18.40;56.13
67545;BME280;54380;47.770;11.150;2023-07-31T01:54:46;94951.38;;;18.30;56.86
67545;BME280;54380;47.770;11.150;2023-07-31T01:57:13;94948.81;;;18.25;57.15
67545;BME280;54380;47.770;11.150;2023-07-31T01:59:39;94945.94;;;18.21;56.93
67545;BME280;54380;47.770;11.150;2023-07-31T02:02:07;94949.97;;;18.18;57.71
67545;BME280;54380;47.770;11.150;2023-07-31T02:04:34;94948.69;;;18.16;57.84
67545;BME280;54380;47.770;11.150;2023-07-31T02:07:02;94939.72;;;18.12;57.55
67545;BME280;54380;47.770;11.150;2023-07-31T02:09:28;94942.66;;;18.10;57.75
67545;BME280;54380;47.770;11.150;2023-07-31T02:11:55;94947.50;;;18.08;57.84
67545;BME280;54380;47.770;11.150;2023-07-31T02:14:21;94942.75;;;18.05;57.56
67545;BME280;54380;47.770;11.150;2023-07-31T02:16:48;94942.84;;;18.00;57.27
67545;BME280;54380;47.770;11.150;2023-07-31T02:19:16;94937.69;;;17.90;56.82
67545;BME280;54380;47.770;11.150;2023-07-31T02:21:43;94939.47;;;17.81;56.89
67545;BME280;54380;47.770;11.150;2023-07-31T02:24:09;94939.41;;;17.67;56.89
67545;BME280;54380;47.770;11.150;2023-07-31T02:26:36;94938.22;;;17.59;57.29
67545;BME280;54380;47.770;11.150;2023-07-31T02:29:04;94934.03;;;17.53;57.30
67545;BME280;54380;47.770;11.150;2023-07-31T02:31:30;94939.44;;;17.48;57.61
67545;BME280;54380;47.770;11.150;2023-07-31T02:33:57;94930.66;;;17.47;58.40
67545;BME280;54380;47.770;11.150;2023-07-31T02:36:25;94928.75;;;17.48;58.38
67545;BME280;54380;47.770;11.150;2023-07-31T02:38:51;94921.84;;;17.47;57.99
67545;BME280;54380;47.770;11.150;2023-07-31T02:41:18;94923.59;;;17.38;57.93
67545;BME280;54380;47.770;11.150;2023-07-31T02:43:45;94922.59;;;17.33;58.20
67545;BME280;54380;47.770;11.150;2023-07-31T02:46:12;94921.31;;;17.31;58.55
67545;BME280;54380;47.770;11.150;2023-07-31T02:48:40;94915.19;;;17.30;58.81
67545;BME280;54380;47.770;11.150;2023-07-31T02:51:06;94911.72;;;17.30;58.31
67545;BME280;54380;47.770;11.150;2023-07-31T02:53:34;94915.13;;;17.17;58.06
67545;BME280;54380;47.770;11.150;2023-07-31T02:56:01;94916.38;;;17.05;59.72
67545;BME280;54380;47.770;11.150;2023-07-31T02:58:27;94913.19;;;17.03;59.90
67545;BME280;54380;47.770;11.150;2023-07-31T03:00:54;94912.13;;;17.04;58.88
67545;BME280;54380;47.770;11.150;2023-07-31T03:03:20;94913.06;;;16.95;59.01
67545;BME280;54380;47.770;11.150;2023-07-31T03:05:48;94915.53;;;16.91;59.98
67545;BME280;54380;47.770;11.150;2023-07-31T03:08:14;94910.97;;;16.92;60.37
67545;BME280;54380;47.770;11.150;2023-07-31T03:10:42;94915.13;;;16.98;60.06
67545;BME280;54380;47.770;11.150;2023-07-31T03:13:09;94916.66;;;17.04;59.86
67545;BME280;54380;47.770;11.150;2023-07-31T03:15:35;94912.13;;;17.04;59.52
67545;BME280;54380;47.770;11.150;2023-07-31T03:18:02;94910.25;;;17.05;59.38
67545;BME280;54380;47.770;11.150;2023-07-31T03:20:29;94913.69;;;17.05;59.47
67545;BME280;54380;47.770;11.150;2023-07-31T03:22:55;94917.16;;;17.06;59.66
67545;BME280;54380;47.770;11.150;2023-07-31T03:25:22;94912.91;;;17.05;59.67
67545;BME280;54380;47.770;11.150;2023-07-31T03:27:51;94917.47;;;17.04;60.09
67545;BME280;54380;47.770;11.150;2023-07-31T03:30:18;94914.47;;;17.06;59.92
67545;BME280;54380;47.770;11.150;2023-07-31T03:32:45;94911.81;;;17.06;59.89
67545;BME280;54380;47.770;11.150;2023-07-31T03:35:11;94915.06;;;17.03;59.91
67545;BME280;54380;47.770;11.150;2023-07-31T03:37:38;94915.38;;;17.01;59.81
67545;BME280;54380;47.770;11.150;2023-07-31T03:40:06;94918.13;;;16.96;59.08
67545;BME280;54380;47.770;11.150;2023-07-31T03:42:33;94926.47;;;16.89;60.26
67545;BME280;54380;47.770;11.150;2023-07-31T03:45:02;94919.56;;;16.88;60.04
67545;BME280;54380;47.770;11.150;2023-07-31T03:47:29;94925.16;;;16.87;60.09
67545;BME280;54380;47.770;11.150;2023-07-31T03:49:56;94925.47;;;16.85;60.39
67545;BME280;54380;47.770;11.150;2023-07-31T03:52:22;94930.81;;;16.85;59.87
67545;BME280;54380;47.770;11.150;2023-07-31T03:54:49;94927.31;;;16.85;59.78
67545;BME280;54380;47.770;11.150;2023-07-31T03:57:15;94923.06;;;16.84;60.01
67545;BME280;54380;47.770;11.150;2023-07-31T03:59:42;94917.75;;;16.84;59.88
67545;BME280;54380;47.770;11.150;2023-07-31T04:02:10;94919.91;;;16.82;59.31
67545;BME280;54380;47.770;11.150;2023-07-31T04:04:37;94915.19;;;16.74;58.92
67545;BME280;54380;47.770;11.150;2023-07-31T04:07:03;94915.56;;;16.67;58.48
67545;BME280;54380;47.770;11.150;2023-07-31T04:09:30;94922.31;;;16.59;58.81
67545;BME280;54380;47.770;11.150;2023-07-31T04:11:56;94926.41;;;16.52;59.28
67545;BME280;54380;47.770;11.150;2023-07-31T04:14:23;94928.06;;;16.48;60.11
67545;BME280;54380;47.770;11.150;2023-07-31T04:16:50;94929.16;;;16.46;60.32
67545;BME280;54380;47.770;11.150;2023-07-31T04:19:18;94927.25;;;16.47;59.79
67545;BME280;54380;47.770;11.150;2023-07-31T04:21:45;94929.41;;;16.45;60.53
67545;BME280;54380;47.770;11.150;2023-07-31T04:24:11;94935.25;;;16.47;60.74
67545;BME280;54380;47.770;11.150;2023-07-31T04:26:38;94915.75;;;16.52;60.37
67545;BME280;54380;47.770;11.150;2023-07-31T04:29:05;94909.06;;;16.54;60.52
67545;BME280;54380;47.770;11.150;2023-07-31T04:31:31;94907.97;;;16.55;60.35
67545;BME280;54380;47.770;11.150;2023-07-31T04:33:58;94909.34;;;16.53;60.66
67545;BME280;54380;47.770;11.150;2023-07-31T04:36:26;94902.66;;;16.55;60.57
67545;BME280;54380;47.770;11.150;2023-07-31T04:38:52;94909.00;;;16.59;60.49
67545;BME280;54380;47.770;11.150;2023-07-31T04:41:19;94907.31;;;16.63;60.32
67545;BME280;54380;47.770;11.150;2023-07-31T04:43:46;94907.84;;;16.65;60.19
67545;BME280;54380;47.770;11.150;2023-07-31T04:46:12;94900.94;;;16.64;60.53
67545;BME280;54380;47.770;11.150;2023-07-31T04:48:39;94900.88;;;16.70;60.12
67545;BME280;54380;47.770;11.150;2023-07-31T04:51:05;94904.84;;;16.72;60.11
67545;BME280;54380;47.770;11.150;2023-07-31T04:53:33;94897.81;;;16.76;59.83
67545;BME280;54380;47.770;11.150;2023-07-31T04:56:00;94898.88;;;16.80;59.78
67545;BME280;54380;47.770;11.150;2023-07-31T04:58:26;94899.59;;;16.86;59.83
67545;BME280;54380;47.770;11.150;2023-07-31T05:00:53;94908.81;;;16.94;59.88
67545;BME280;54380;47.770;11.150;2023-07-31T05:03:20;94907.13;;;16.98;59.90
67545;BME280;54380;47.770;11.150;2023-07-31T05:05:47;94912.41;;;17.03;59.79
67545;BME280;54380;47.770;11.150;2023-07-31T05:08:13;94916.00;;;17.12;59.56
67545;BME280;54380;47.770;11.150;2023-07-31T05:10:41;94912.97;;;17.19;59.40
67545;BME280;54380;47.770;11.150;2023-07-31T05:13:08;94919.00;;;17.24;59.15
67545;BME280;54380;47.770;11.150;2023-07-31T05:15:34;94914.69;;;17.28;59.24
67545;BME280;54380;47.770;11.150;2023-07-31T05:18:01;94914.28;;;17.35;59.08
67545;BME280;54380;47.770;11.150;2023-07-31T05:20:28;94918.69;;;17.45;58.77
67545;BME280;54380;47.770;11.150;2023-07-31T05:22:54;94911.59;;;17.54;58.70
67545;BME280;54380;47.770;11.150;2023-07-31T05:25:21;94910.94;;;17.62;58.59
67545;BME280;54380;47.770;11.150;2023-07-31T05:27:49;94909.75;;;17.68;58.25
67545;BME280;54380;47.770;11.150;2023-07-31T05:30:15;94911.34;;;17.69;58.22
67545;BME280;54380;47.770;11.150;2023-07-31T05:32:42;94915.28;;;17.72;58.02
67545;BME280;54380;47.770;11.150;2023-07-31T05:35:08;94913.91;;;17.74;58.09
67545;BME280;54380;47.770;11.150;2023-07-31T05:37:35;94913.84;;;17.80;58.03
67545;BME280;54380;47.770;11.150;2023-07-31T05:40:02;94918.63;;;17.83;57.94
67545;BME280;54380;47.770;11.150;2023-07-31T05:42:29;94920.38;;;17.87;57.84
67545;BME280;54380;47.770;11.150;2023-07-31T05:44:57;94920.78;;;17.94;57.63
67545;BME280;54380;47.770;11.150;2023-07-31T05:47:24;94908.91;;;18.01;57.60
67545;BME280;54380;47.770;11.150;2023-07-31T05:49:50;94912.78;;;18.08;57.46
67545;BME280;54380;47.770;11.150;2023-07-31T05:52:20;94903.88;;;18.13;57.29
67545;BME280;54380;47.770;11.150;2023-07-31T05:54:46;94902.91;;;18.23;57.35
67545;BME280;54380;47.770;11.150;2023-07-31T05:57:13;94901.41;;;18.30;57.50
67545;BME280;54380;47.770;11.150;2023-07-31T05:59:40;94909.00;;;18.37;57.16
67545;BME280;54380;47.770;11.150;2023-07-31T06:02:07;94899.31;;;18.41;57.15
67545;BME280;54380;47.770;11.150;2023-07-31T06:04:34;94901.41;;;18.44;56.99
67545;BME280;54380;47.770;11.150;2023-07-31T06:07:01;94907.41;;;18.50;57.00
67545;BME280;54380;47.770;11.150;2023-07-31T06:09:28;94902.75;;;18.55;57.00
67545;BME280;54380;47.770;11.150;2023-07-31T06:11:54;94895.41;;;18.61;56.74
67545;BME280;54380;47.770;11.150;2023-07-31T06:14:21;94903.03;;;18.68;56.84
67545;BME280;54380;47.770;11.150;2023-07-31T06:16:47;94899.16;;;18.74;56.90
67545;BME280;54380;47.770;11.150;2023-07-31T06:19:15;94894.50;;;18.79;56.95
67545;BME280;54380;47.770;11.150;2023-07-31T06:21:42;94899.94;;;18.88;56.70
67545;BME280;54380;47.770;11.150;2023-07-31T06:24:10;94897.84;;;18.99;56.70
67545;BME280;54380;47.770;11.150;2023-07-31T06:26:38;94896.50;;;19.10;56.03
67545;BME280;54380;47.770;11.150;2023-07-31T06:29:05;94888.03;;;19.17;55.94
67545;BME280;54380;47.770;11.150;2023-07-31T06:31:32;94887.91;;;19.22;55.88
67545;BME280;54380;47.770;11.150;2023-07-31T06:33:58;94888.78;;;19.31;55.68
67545;BME280;54380;47.770;11.150;2023-07-31T06:36:26;94896.69;;;19.36;55.56
67545;BME280;54380;47.770;11.150;2023-07-31T06:38:53;94887.53;;;19.37;54.92
67545;BME280;54380;47.770;11.150;2023-07-31T06:41:20;94894.97;;;19.40;55.24
67545;BME280;54380;47.770;11.150;2023-07-31T06:43:46;94892.97;;;19.46;55.33
67545;BME280;54380;47.770;11.150;2023-07-31T06:46:13;94903.56;;;19.51;55.17
67545;BME280;54380;47.770;11.150;2023-07-31T06:48:40;94903.09;;;19.58;55.03
67545;BME280;54380;47.770;11.150;2023-07-31T06:51:06;94904.00;;;19.67;55.23
67545;BME280;54380;47.770;11.150;2023-07-31T06:53:34;94888.91;;;19.80;54.77
67545;BME280;54380;47.770;11.150;2023-07-31T06:56:01;94885.66;;;19.91;54.71
67545;BME280;54380;47.770;11.150;2023-07-31T06:58:28;94883.22;;;20.04;54.86
67545;BME280;54380;47.770;11.150;2023-07-31T07:00:54;94886.41;;;20.14;54.33
67545;BME280;54380;47.770;11.150;2023-07-31T07:03:21;94877.25;;;20.24;53.75
67545;BME280;54380;47.770;11.150;2023-07-31T07:05:48;94879.16;;;20.32;53.72
67545;BME280;54380;47.770;11.150;2023-07-31T07:08:14;94873.66;;;20.37;53.36
67545;BME280;54380;47.770;11.150;2023-07-31T07:10:43;94877.31;;;20.42;53.43
67545;BME280;54380;47.770;11.150;2023-07-31T07:13:09;94888.19;;;20.45;53.11
67545;BME280;54380;47.770;11.150;2023-07-31T07:15:36;94879.06;;;20.46;52.80
67545;BME280;54380;47.770;11.150;2023-07-31T07:18:03;94891.66;;;20.46;52.73
67545;BME280;54380;47.770;11.150;2023-07-31T07:20:30;94879.84;;;20.47;52.01
67545;BME280;54380;47.770;11.150;2023-07-31T07:22:56;94876.53;;;20.41;52.23
67545;BME280;54380;47.770;11.150;2023-07-31T07:25:23;94879.22;;;20.41;52.20
67545;BME280;54380;47.770;11.150;2023-07-31T07:27:51;94873.53;;;20.43;52.22
67545;BME280;54380;47.770;11.150;2023-07-31T07:30:18;94880.47;;;20.44;52.30
67545;BME280;54380;47.770;11.150;2023-07-31T07:32:44;94880.34;;;20.49;52.18
67545;BME280;54380;47.770;11.150;2023-07-31T07:35:11;94881.28;;;20.53;52.02
67545;BME280;54380;47.770;11.150;2023-07-31T07:37:38;94872.97;;;20.54;52.18
67545;BME280;54380;47.770;11.150;2023-07-31T07:40:05;94870.44;;;20.58;51.75
67545;BME280;54380;47.770;11.150;2023-07-31T07:42:32;94867.44;;;20.68;51.64
67545;BME280;54380;47.770;11.150;2023-07-31T07:45:00;94866.50;;;20.81;51.76
67545;BME280;54380;47.770;11.150;2023-07-31T07:47:27;94856.41;;;20.96;51.39
67545;BME280;54380;47.770;11.150;2023-07-31T07:49:54;94855.78;;;21.08;50.97
67545;BME280;54380;47.770;11.150;2023-07-31T07:52:21;94846.44;;;21.22;50.88
67545;BME280;54380;47.770;11.150;2023-07-31T07:54:48;94840.41;;;21.43;50.33
67545;BME280;54380;47.770;11.150;2023-07-31T07:57:14;94839.00;;;21.54;49.90
67545;BME280;54380;47.770;11.150;2023-07-31T07:59:41;94837.22;;;21.67;49.89
67545;BME280;54380;47.770;11.150;2023-07-31T08:02:09;94833.53;;;21.80;49.53
67545;BME280;54380;47.770;11.150;2023-07-31T08:04:35;94825.09;;;21.90;48.95
67545;BME280;54380;47.770;11.150;2023-07-31T08:07:02;94837.06;;;22.02;48.90
67545;BME280;54380;47.770;11.150;2023-07-31T08:09:29;94828.78;;;22.16;48.87
67545;BME280;54380;47.770;11.150;2023-07-31T08:11:55;94838.84;;;22.27;48.23
67545;BME280;54380;47.770;11.150;2023-07-31T08:14:24;94832.97;;;22.34;48.11
67545;BME280;54380;47.770;11.150;2023-07-31T08:16:51;94835.28;;;22.44;48.43
67545;BME280;54380;47.770;11.150;2023-07-31T08:19:19;94842.22;;;22.66;48.06
67545;BME280;54380;47.770;11.150;2023-07-31T08:21:46;94833.00;;;22.76;47.19
67545;BME280;54380;47.770;11.150;2023-07-31T08:24:13;94822.94;;;22.85;47.50
67545;BME280;54380;47.770;11.150;2023-07-31T08:26:39;94826.75;;;23.05;47.06
67545;BME280;54380;47.770;11.150;2023-07-31T08:29:07;94820.31;;;23.18;47.17
67545;BME280;54380;47.770;11.150;2023-07-31T08:31:34;94819.47;;;23.39;46.98
67545;BME280;54380;47.770;11.150;2023-07-31T08:34:01;94829.03;;;23.49;46.30
67545;BME280;54380;47.770;11.150;2023-07-31T08:36:29;94819.72;;;23.46;46.35
67545;BME280;54380;47.770;11.150;2023-07-31T08:38:56;94820.81;;;23.45;46.71
67545;BME280;54380;47.770;11.150;2023-07-31T08:41:22;94815.56;;;23.49;45.90
67545;BME280;54380;47.770;11.150;2023-07-31T08:43:50;94807.94;;;23.51;45.90
67545;BME280;54380;47.770;11.150;2023-07-31T08:46:18;94800.31;;;23.53;45.80
67545;BME280;54380;47.770;11.150;2023-07-31T08:48:45;94803.47;;;23.55;45.82
67545;BME280;54380;47.770;11.150;2023-07-31T08:51:13;94805.78;;;23.56;45.94
67545;BME280;54380;47.770;11.150;2023-07-31T08:53:41;94799.97;;;23.54;45.82
67545;BME280;54380;47.770;11.150;2023-07-31T08:56:08;94807.38;;;23.57;46.52
67545;BME280;54380;47.770;11.150;2023-07-31T08:58:35;94810.56;;;23.72;46.12
67545;BME280;54380;47.770;11.150;2023-07-31T09:01:04;94793.09;;;23.78;45.28
67545;BME280;54380;47.770;11.150;2023-07-31T09:03:33;94803.03;;;23.77;45.54
67545;BME280;54380;47.770;11.150;2023-07-31T09:06:00;94791.16;;;23.78;45.24
67545;BME280;54380;47.770;11.150;2023-07-31T09:08:30;94800.03;;;23.79;45.55
67545;BME280;54380;47.770;11.150;2023-07-31T09:11:00;94806.56;;;23.78;45.53
67545;BME280;54380;47.770;11.150;2023-07-31T09:13:31;94808.56;;;23.81;45.55
67545;BME280;54380;47.770;11.150;2023-07-31T09:15:58;94806.44;;;23.99;45.47
67545;BME280;54380;47.770;11.150;2023-07-31T09:18:24;94806.66;;;24.18;45.34
67545;BME280;54380;47.770;11.150;2023-07-31T09:21:00;94803.72;;;24.36;45.13
67545;BME280;54380;47.770;11.150;2023-07-31T09:23:27;94796.28;;;24.57;45.15
67545;BME280;54380;47.770;11.150;2023-07-31T09:26:07;94791.97;;;24.68;44.53
67545;BME280;54380;47.770;11.150;2023-07-31T09:28:34;94792.31;;;24.67;44.48
67545;BME280;54380;47.770;11.150;2023-07-31T09:31:01;94792.97;;;24.76;44.21
67545;BME280;54380;47.770;11.150;2023-07-31T09:33:27;94785.16;;;24.87;43.40
67545;BME280;54380;47.770;11.150;2023-07-31T09:35:54;94780.16;;;25.01;43.74
67545;BME280;54380;47.770;11.150;2023-07-31T09:38:21;94784.16;;;25.19;43.51
67545;BME280;54380;47.770;11.150;2023-07-31T09:40:48;94781.09;;;25.21;43.29
67545;BME280;54380;47.770;11.150;2023-07-31T09:43:18;94788.19;;;25.13;42.78
67545;BME280;54380;47.770;11.150;2023-07-31T09:45:45;94775.13;;;25.00;43.50
67545;BME280;54380;47.770;11.150;2023-07-31T09:48:12;94772.75;;;24.98;43.67
67545;BME280;54380;47.770;11.150;2023-07-31T09:50:41;94782.34;;;25.11;43.20
67545;BME280;54380;47.770;11.150;2023-07-31T09:53:08;94778.97;;;25.14;43.17
67545;BME280;54380;47.770;11.150;2023-07-31T09:55:34;94766.91;;;25.24;43.64
67545;BME280;54380;47.770;11.150;2023-07-31T09:58:03;94768.06;;;25.39;43.11
67545;BME280;54380;47.770;11.150;2023-07-31T10:00:31;94761.53;;;25.56;43.50
67545;BME280;54380;47.770;11.150;2023-07-31T10:02:59;94755.34;;;25.71;42.91
67545;BME280;54380;47.770;11.150;2023-07-31T10:05:27;94747.47;;;25.82;42.21
67545;BME280;54380;47.770;11.150;2023-07-31T10:07:56;94748.53;;;25.93;42.06
67545;BME280;54380;47.770;11.150;2023-07-31T10:10:23;94738.34;;;26.02;41.63
67545;BME280;54380;47.770;11.150;2023-07-31T10:12:51;94735.34;;;26.08;41.63
67545;BME280;54380;47.770;11.150;2023-07-31T10:15:19;94724.34;;;26.16;41.75
67545;BME280;54380;47.770;11.150;2023-07-31T10:17:48;94724.22;;;26.28;41.01
67545;BME280;54380;47.770;11.150;2023-07-31T10:20:15;94728.66;;;26.37;41.04
67545;BME280;54380;47.770;11.150;2023-07-31T10:22:43;94727.88;;;26.36;40.75
67545;BME280;54380;47.770;11.150;2023-07-31T10:25:10;94733.28;;;26.36;40.50
67545;BME280;54380;47.770;11.150;2023-07-31T10:27:38;94729.78;;;26.36;39.93
67545;BME280;54380;47.770;11.150;2023-07-31T10:30:05;94724.59;;;26.46;40.09
67545;BME280;54380;47.770;11.150;2023-07-31T10:32:33;94723.63;;;26.55;40.54
67545;BME280;54380;47.770;11.150;2023-07-31T10:35:02;94721.56;;;26.67;39.59
67545;BME280;54380;47.770;11.150;2023-07-31T10:37:35;94724.78;;;26.73;39.75
67545;BME280;54380;47.770;11.150;2023-07-31T10:40:04;94710.56;;;26.80;40.35
67545;BME280;54380;47.770;11.150;2023-07-31T10:42:32;94708.63;;;27.00;39.87
67545;BME280;54380;47.770;11.150;2023-07-31T10:44:59;94712.56;;;27.02;39.95
67545;BME280;54380;47.770;11.150;2023-07-31T10:47:26;94706.91;;;27.11;40.08
67545;BME280;54380;47.770;11.150;2023-07-31T10:52:36;94708.31;;;27.47;39.70
67545;BME280;54380;47.770;11.150;2023-07-31T10:57:58;94704.31;;;27.64;38.51
67545;BME280;54380;47.770;11.150;2023-07-31T11:00:25;94696.09;;;27.57;37.62
67545;BME280;54380;47.770;11.150;2023-07-31T11:02:56;94691.19;;;27.66;38.33
67545;BME280;54380;47.770;11.150;2023-07-31T11:05:26;94688.06;;;27.64;38.32
67545;BME280;54380;47.770;11.150;2023-07-31T11:08:11;94681.59;;;27.72;38.47
67545;BME280;54380;47.770;11.150;2023-07-31T11:10:38;94680.94;;;27.79;37.54
67545;BME280;54380;47.770;11.150;2023-07-31T11:13:05;94679.13;;;27.87;37.93
67545;BME280;54380;47.770;11.150;2023-07-31T11:15:32;94669.59;;;27.96;38.19
67545;BME280;54380;47.770;11.150;2023-07-31T11:17:59;94664.22;;;28.00;37.52
67545;BME280;54380;47.770;11.150;2023-07-31T11:20:26;94650.31;;;28.05;37.70
67545;BME280;54380;47.770;11.150;2023-07-31T11:22:53;94650.03;;;28.14;37.85
67545;BME280;54380;47.770;11.150;2023-07-31T11:25:21;94661.41;;;28.23;37.53
67545;BME280;54380;47.770;11.150;2023-07-31T11:27:49;94653.34;;;28.30;37.49
67545;BME280;54380;47.770;11.150;2023-07-31T11:30:20;94645.28;;;28.37;37.44
67545;BME280;54380;47.770;11.150;2023-07-31T11:32:47;94648.84;;;28.41;37.03
67545;BME280;54380;47.770;11.150;2023-07-31T11:35:16;94636.78;;;28.39;37.77
67545;BME280;54380;47.770;11.150;2023-07-31T11:37:43;94631.72;;;28.37;37.33
67545;BME280;54380;47.770;11.150;2023-07-31T11:40:10;94629.41;;;28.36;37.39
67545;BME280;54380;47.770;11.150;2023-07-31T11:42:39;94628.59;;;28.35;37.39
67545;BME280;54380;47.770;11.150;2023-07-31T11:45:06;94614.22;;;28.31;37.48
67545;BME280;54380;47.770;11.150;2023-07-31T11:47:33;94613.88;;;28.36;37.74
67545;BME280;54380;47.770;11.150;2023-07-31T11:50:04;94621.41;;;28.47;37.69
67545;BME280;54380;47.770;11.150;2023-07-31T11:52:33;94609.75;;;28.46;37.27
67545;BME280;54380;47.770;11.150;2023-07-31T11:55:01;94619.13;;;28.52;37.48
67545;BME280;54380;47.770;11.150;2023-07-31T11:57:28;94608.34;;;28.59;37.41
67545;BME280;54380;47.770;11.150;2023-07-31T11:59:57;94618.06;;;28.60;37.33
67545;BME280;54380;47.770;11.150;2023-07-31T12:02:24;94609.81;;;28.50;36.79
67545;BME280;54380;47.770;11.150;2023-07-31T12:04:55;94606.09;;;28.35;36.86
67545;BME280;54380;47.770;11.150;2023-07-31T12:07:23;94596.31;;;28.27;37.62
67545;BME280;54380;47.770;11.150;2023-07-31T12:09:51;94588.69;;;28.36;37.24
67545;BME280;54380;47.770;11.150;2023-07-31T12:12:19;94582.22;;;28.44;37.34
67545;BME280;54380;47.770;11.150;2023-07-31T12:14:46;94574.53;;;28.53;37.45
67545;BME280;54380;47.770;11.150;2023-07-31T12:17:15;94574.56;;;28.57;36.68
67545;BME280;54380;47.770;11.150;2023-07-31T12:19:42;94571.03;;;28.49;37.08
67545;BME280;54380;47.770;11.150;2023-07-31T12:22:11;94571.06;;;28.56;37.43
67545;BME280;54380;47.770;11.150;2023-07-31T12:24:38;94564.19;;;28.66;37.54
67545;BME280;54380;47.770;11.150;2023-07-31T12:27:08;94569.28;;;28.71;37.15
67545;BME280;54380;47.770;11.150;2023-07-31T12:29:35;94563.50;;;28.76;36.63
67545;BME280;54380;47.770;11.150;2023-07-31T12:35:07;94552.56;;;28.69;35.97
67545;BME280;54380;47.770;11.150;2023-07-31T12:37:35;94544.84;;;28.71;37.09
67545;BME280;54380;47.770;11.150;2023-07-31T12:40:01;94542.56;;;28.77;36.78
67545;BME280;54380;47.770;11.150;2023-07-31T12:42:34;94549.19;;;28.79;36.86
67545;BME280;54380;47.770;11.150;2023-07-31T12:45:04;94534.84;;;28.82;37.13
67545;BME280;54380;47.770;11.150;2023-07-31T12:47:31;94541.38;;;28.74;36.44
67545;BME280;54380;47.770;11.150;2023-07-31T12:49:58;94535.81;;;28.60;36.44
67545;BME280;54380;47.770;11.150;2023-07-31T12:52:26;94537.34;;;28.57;37.13
67545;BME280;54380;47.770;11.150;2023-07-31T12:54:53;94533.78;;;28.50;37.08
67545;BME280;54380;47.770;11.150;2023-07-31T12:57:20;94532.13;;;28.41;37.97
67545;BME280;54380;47.770;11.150;2023-07-31T12:59:47;94532.34;;;28.26;37.70